Time;durP1;ratioP1;P1;durP2;ratioP2;P2;SDS_P1;SDS_P2;PMS_P1;PMS_P2;Temp;Humidity;BMP_temperature;BMP_pressure;BME280_temperature;BME280_humidity;BME280_pressure;Samples;Min_cycle;Max_cycle;Signal;HPM_P1;HPM_P2
2021/09/11 00:01:19;;;;;;;;;3.00;3.00;;;;;25.95;48.11;101416.16;5081391;27;51158;-49
2021/09/11 00:03:46;;;;;;;;;3.00;2.75;;;;;25.96;48.17;101433.66;5088734;27;51504;-50
2021/09/11 00:06:11;;;;;;;;;3.25;3.25;;;;;25.93;47.99;101432.19;5080578;27;51060;-48
2021/09/11 00:08:36;;;;;;;;;3.25;3.00;;;;;25.93;48.14;101436.91;5077065;27;51768;-49
2021/09/11 00:11:02;;;;;;;;;2.75;2.75;;;;;25.92;47.91;101438.00;5081948;27;51286;-52
2021/09/11 00:13:27;;;;;;;;;5.00;3.00;;;;;25.89;48.14;101436.56;5095310;27;51187;-48
2021/09/11 00:15:52;;;;;;;;;2.00;2.00;;;;;25.88;48.07;101432.94;5094973;27;51473;-50
2021/09/11 00:18:18;;;;;;;;;2.00;2.00;;;;;25.87;47.83;101431.25;5092075;27;51802;-49
2021/09/11 00:20:43;;;;;;;;;3.50;3.50;;;;;25.86;47.70;101435.13;5078450;27;51147;-51
2021/09/11 00:23:11;;;;;;;;;2.75;2.00;;;;;25.85;47.84;101435.38;5091187;27;51325;-49
2021/09/11 00:25:36;;;;;;;;;3.25;3.00;;;;;25.83;47.56;101432.81;5093957;27;51170;-49
2021/09/11 00:28:02;;;;;;;;;3.25;2.00;;;;;25.82;47.79;101433.91;5089619;27;51025;-49
2021/09/11 00:30:27;;;;;;;;;2.25;2.25;;;;;25.82;47.83;101430.28;5077036;27;51124;-51
2021/09/11 00:32:53;;;;;;;;;4.25;3.00;;;;;25.80;47.62;101430.53;5089759;27;50981;-52
2021/09/11 00:35:18;;;;;;;;;3.00;3.00;;;;;25.79;47.35;101426.09;5097094;27;50949;-50
2021/09/11 00:37:44;;;;;;;;;2.75;2.75;;;;;25.78;47.91;101432.72;5092227;27;51678;-49
2021/09/11 00:40:11;;;;;;;;;4.00;4.00;;;;;25.77;47.50;101424.66;5094485;27;51569;-49
2021/09/11 00:42:37;;;;;;;;;3.25;3.25;;;;;25.76;47.47;101428.50;5094636;27;51269;-49
2021/09/11 00:45:04;;;;;;;;;4.00;2.75;;;;;25.74;47.63;101431.53;5083387;27;51239;-49
2021/09/11 00:47:30;;;;;;;;;2.75;2.75;;;;;25.72;47.37;101428.13;5079273;27;51430;-50
2021/09/11 00:49:55;;;;;;;;;2.25;2.00;;;;;25.69;47.90;101424.97;5093505;27;51041;-52
2021/09/11 00:52:21;;;;;;;;;2.00;2.00;;;;;25.69;47.40;101420.28;5095955;27;51290;-50
2021/09/11 00:54:47;;;;;;;;;3.75;3.75;;;;;25.68;47.41;101414.97;5078287;27;51007;-49
2021/09/11 00:57:14;;;;;;;;;4.00;2.00;;;;;25.66;47.45;101426.31;5080933;27;50899;-51
2021/09/11 00:59:40;;;;;;;;;5.50;3.00;;;;;25.65;47.10;101427.41;5096116;27;51290;-52
2021/09/11 01:02:05;;;;;;;;;2.00;2.00;;;;;25.63;47.32;101435.94;5084313;27;51180;-51
2021/09/11 01:04:31;;;;;;;;;2.50;2.50;;;;;25.64;47.47;101439.59;5080473;27;50985;-53
2021/09/11 01:06:57;;;;;;;;;3.00;3.00;;;;;25.63;47.41;101435.09;5076450;27;51146;-52
2021/09/11 01:09:23;;;;;;;;;4.25;3.00;;;;;25.63;47.29;101432.31;5076388;27;51137;-50
2021/09/11 01:11:49;;;;;;;;;4.00;4.00;;;;;25.62;47.53;101438.97;5092218;27;51482;-48
2021/09/11 01:14:15;;;;;;;;;5.00;4.25;;;;;25.62;47.58;101438.97;5087612;27;51016;-49
2021/09/11 01:16:40;;;;;;;;;3.00;3.00;;;;;25.60;47.13;101432.81;5078359;27;51796;-50
2021/09/11 01:19:05;;;;;;;;;1.50;1.50;;;;;25.59;47.30;101437.53;5085659;27;51200;-47
2021/09/11 01:21:31;;;;;;;;;3.50;3.00;;;;;25.58;47.34;101444.16;5087465;27;51221;-49
2021/09/11 01:23:56;;;;;;;;;4.50;3.00;;;;;25.57;47.10;101445.25;5085591;27;51347;-52
2021/09/11 01:26:21;;;;;;;;;2.75;2.75;;;;;25.55;47.08;101450.22;5080832;27;51977;-51
2021/09/11 01:28:47;;;;;;;;;3.00;1.50;;;;;25.54;47.24;101456.84;5093869;27;50944;-49
2021/09/11 01:31:12;;;;;;;;;3.00;3.00;;;;;25.52;46.96;101450.66;5084832;27;52248;-49
2021/09/11 01:33:38;;;;;;;;;2.75;2.75;;;;;25.51;46.98;101448.16;5087945;27;51089;-49
2021/09/11 01:36:03;;;;;;;;;2.50;1.00;;;;;25.51;46.85;101448.16;5076388;27;51652;-48
2021/09/11 01:38:29;;;;;;;;;2.25;2.25;;;;;25.49;46.73;101447.53;5087646;27;51744;-52
2021/09/11 01:40:54;;;;;;;;;6.00;3.00;;;;;25.48;46.91;101451.41;5094791;27;51179;-47
2021/09/11 01:43:30;;;;;;;;;2.00;2.00;;;;;25.47;46.84;101449.72;5090373;27;51349;-50
2021/09/11 01:45:56;;;;;;;;;2.50;2.50;;;;;25.45;46.71;101461.06;5078635;27;51242;-52
2021/09/11 01:48:21;;;;;;;;;4.50;2.75;;;;;25.44;46.59;101455.75;5091787;27;51111;-47
2021/09/11 01:50:47;;;;;;;;;5.00;3.50;;;;;25.43;46.66;101456.81;5096206;27;51283;-50
2021/09/11 01:53:12;;;;;;;;;4.00;2.75;;;;;25.41;46.70;101453.44;5089130;27;51055;-49
2021/09/11 01:55:37;;;;;;;;;4.75;3.25;;;;;25.39;46.70;101456.47;5075656;27;51723;-50
2021/09/11 01:58:03;;;;;;;;;3.50;3.50;;;;;25.39;46.33;101455.63;5075922;27;51040;-50
2021/09/11 02:00:28;;;;;;;;;2.75;2.75;;;;;25.36;46.64;101448.63;5075740;27;51211;-47
2021/09/11 02:02:54;;;;;;;;;2.50;2.00;;;;;25.36;46.52;101445.88;5084206;27;51082;-49
2021/09/11 02:05:19;;;;;;;;;1.25;1.25;;;;;25.35;46.30;101443.34;5077839;27;51884;-48
2021/09/11 02:07:45;;;;;;;;;2.75;2.25;;;;;25.34;46.49;101450.81;5075751;27;50998;-48
2021/09/11 02:10:12;;;;;;;;;1.75;1.75;;;;;25.32;46.22;101453.84;5075648;27;51021;-50
2021/09/11 02:12:38;;;;;;;;;2.50;2.00;;;;;25.31;46.14;101449.34;5079147;27;51141;-48
2021/09/11 02:15:04;;;;;;;;;2.50;2.50;;;;;25.31;46.41;101445.72;5089157;27;51782;-48
2021/09/11 02:17:30;;;;;;;;;3.75;2.00;;;;;25.30;46.37;101453.19;5083293;27;51107;-49
2021/09/11 02:19:55;;;;;;;;;3.75;3.75;;;;;25.29;46.18;101457.06;5081687;27;51221;-50
2021/09/11 02:22:21;;;;;;;;;2.00;2.00;;;;;25.28;46.30;101463.69;5077138;27;51381;-49
2021/09/11 02:24:46;;;;;;;;;4.75;2.00;;;;;25.28;46.18;101460.94;5084003;27;51319;-50
2021/09/11 02:27:11;;;;;;;;;2.00;2.00;;;;;25.27;46.03;101453.69;5086801;27;50974;-50
2021/09/11 02:29:37;;;;;;;;;1.00;1.00;;;;;25.25;45.76;101449.47;5076680;27;51253;-50
2021/09/11 02:32:04;;;;;;;;;2.00;2.00;;;;;25.24;45.84;101451.41;5078938;27;51146;-51
2021/09/11 02:34:30;;;;;;;;;2.00;2.00;;;;;25.23;45.90;101452.50;5080970;27;51797;-50
2021/09/11 02:36:56;;;;;;;;;2.50;2.00;;;;;25.22;46.07;101456.34;5084410;27;51308;-48
2021/09/11 02:39:21;;;;;;;;;5.00;2.00;;;;;25.21;45.91;101451.88;5076535;27;51067;-50
2021/09/11 02:41:46;;;;;;;;;2.00;2.00;;;;;25.19;45.93;101442.94;5087627;27;51219;-52
2021/09/11 02:44:12;;;;;;;;;3.00;3.00;;;;;25.18;45.93;101444.03;5091019;27;52206;-50
2021/09/11 02:46:38;;;;;;;;;3.00;2.00;;;;;25.18;45.79;101443.19;5094397;27;50910;-50
2021/09/11 02:49:03;;;;;;;;;2.00;1.00;;;;;25.17;45.89;101441.50;5080508;27;51119;-47
2021/09/11 02:51:29;;;;;;;;;3.25;2.00;;;;;25.18;45.94;101451.50;5088804;27;51084;-48
2021/09/11 02:53:55;;;;;;;;;2.50;2.00;;;;;25.17;45.96;101442.34;5086864;27;51001;-49
2021/09/11 02:56:20;;;;;;;;;2.25;2.00;;;;;25.17;45.94;101444.28;5098860;27;51139;-52
2021/09/11 02:58:46;;;;;;;;;2.00;2.00;;;;;25.16;45.65;101437.91;5098324;27;51091;-48
2021/09/11 03:01:11;;;;;;;;;2.00;2.00;;;;;25.17;45.93;101441.50;5090991;27;50996;-50
2021/09/11 03:03:37;;;;;;;;;2.00;2.00;;;;;25.14;45.85;101442.84;5081484;27;52816;-51
2021/09/11 03:06:03;;;;;;;;;2.25;2.00;;;;;25.15;46.09;101444.53;5098843;27;51164;-49
2021/09/11 03:08:28;;;;;;;;;2.75;2.25;;;;;25.14;45.85;101442.84;5097364;27;51738;-47
2021/09/11 03:10:54;;;;;;;;;3.00;3.00;;;;;25.15;45.94;101449.22;5098252;27;51098;-51
2021/09/11 03:13:19;;;;;;;;;1.00;1.00;;;;;25.15;45.84;101446.47;5074833;28;51229;-47
2021/09/11 03:15:45;;;;;;;;;5.25;3.25;;;;;25.14;45.95;101442.00;5077883;27;51155;-48
2021/09/11 03:18:11;;;;;;;;;2.00;2.00;;;;;25.13;45.90;101443.94;5096408;27;51441;-50
2021/09/11 03:20:36;;;;;;;;;3.00;2.25;;;;;25.12;45.84;101444.16;5096050;27;50944;-49
2021/09/11 03:23:05;;;;;;;;;3.75;2.00;;;;;25.11;45.99;101434.13;5088198;27;51168;-50
2021/09/11 03:25:31;;;;;;;;;3.00;3.00;;;;;25.11;45.74;101443.28;5089849;27;50977;-45
2021/09/11 03:27:57;;;;;;;;;3.00;3.00;;;;;25.10;45.94;101436.06;5082487;27;51392;-50
2021/09/11 03:30:23;;;;;;;;;2.50;2.50;;;;;25.10;45.85;101440.75;5096574;27;51194;-46
2021/09/11 03:32:48;;;;;;;;;1.00;1.00;;;;;25.09;45.87;101442.69;5092915;27;51158;-46
2021/09/11 03:35:14;;;;;;;;;1.00;1.00;;;;;25.07;45.88;101439.31;5085508;27;51109;-44
2021/09/11 03:37:39;;;;;;;;;1.00;1.00;;;;;25.07;45.78;101439.31;5078676;27;51148;-47
2021/09/11 03:40:05;;;;;;;;;3.00;3.00;;;;;25.06;45.23;101437.63;5088648;27;51489;-50
2021/09/11 03:42:30;;;;;;;;;1.00;1.00;;;;;25.06;45.78;101442.34;5094012;27;52915;-50
2021/09/11 03:44:56;;;;;;;;;4.50;1.25;;;;;25.03;45.49;101436.19;5088858;27;51273;-46
2021/09/11 03:47:21;;;;;;;;;3.25;1.50;;;;;25.01;45.49;101440.22;5080145;27;51017;-50
2021/09/11 03:49:47;;;;;;;;;1.00;1.00;;;;;25.01;45.64;101443.00;5080633;27;51001;-46
2021/09/11 03:52:12;;;;;;;;;2.00;2.00;;;;;25.00;45.63;101446.88;5078151;27;51031;-48
2021/09/11 03:54:37;;;;;;;;;2.00;2.00;;;;;24.97;45.42;101442.66;5090362;27;51174;-45
2021/09/11 03:57:03;;;;;;;;;2.00;2.00;;;;;24.96;45.50;101446.50;5078616;27;51375;-48
2021/09/11 03:59:28;;;;;;;;;1.75;1.00;;;;;24.95;45.55;101452.28;5091417;27;51167;-45
2021/09/11 04:01:54;;;;;;;;;0.25;0.25;;;;;24.94;45.67;101447.84;5091291;27;51081;-46
2021/09/11 04:04:19;;;;;;;;;2.50;1.00;;;;;24.93;45.61;101451.69;5080660;27;51037;-45
2021/09/11 04:06:44;;;;;;;;;2.00;1.50;;;;;24.92;45.58;101447.22;5078217;27;50988;-48
2021/09/11 04:09:09;;;;;;;;;2.00;2.00;;;;;24.91;45.51;101448.31;5086012;27;50923;-48
2021/09/11 04:11:35;;;;;;;;;2.25;2.25;;;;;24.89;45.53;101459.63;5077970;27;51801;-45
2021/09/11 04:14:00;;;;;;;;;1.00;1.00;;;;;24.88;45.54;101457.94;5086715;27;51105;-47
2021/09/11 04:16:25;;;;;;;;;2.00;2.00;;;;;24.87;45.67;101450.69;5097823;27;51223;-46
2021/09/11 04:18:51;;;;;;;;;1.50;1.50;;;;;24.87;45.49;101452.63;5089129;27;51012;-49
2021/09/11 04:21:16;;;;;;;;;1.50;1.00;;;;;24.86;45.62;101449.00;5092995;27;51763;-48
2021/09/11 04:23:42;;;;;;;;;2.00;1.75;;;;;24.86;45.50;101456.47;5097478;27;51253;-50
2021/09/11 04:26:07;;;;;;;;;1.00;1.00;;;;;24.85;45.51;101463.09;5082150;27;51169;-46
2021/09/11 04:28:32;;;;;;;;;0.50;0.50;;;;;24.84;45.65;101459.50;5089909;27;51119;-48
2021/09/11 04:30:58;;;;;;;;;2.25;2.25;;;;;24.84;45.48;101459.50;5091656;27;51031;-48
2021/09/11 04:33:23;;;;;;;;;1.00;1.00;;;;;24.84;45.81;101465.03;5088531;27;51079;-50
2021/09/11 04:35:48;;;;;;;;;2.25;2.00;;;;;24.84;45.49;101459.50;5082910;27;51235;-49
2021/09/11 04:38:14;;;;;;;;;2.50;2.00;;;;;24.84;45.38;101453.13;5094429;27;51149;-52
2021/09/11 04:40:39;;;;;;;;;2.00;2.00;;;;;24.85;45.70;101446.47;5089032;27;51293;-50
2021/09/11 04:43:07;;;;;;;;;1.00;1.00;;;;;24.84;45.80;101445.63;5082521;27;51328;-51
2021/09/11 04:45:33;;;;;;;;;1.00;1.00;;;;;24.85;45.77;101450.09;5096834;27;51084;-50
2021/09/11 04:47:58;;;;;;;;;3.00;1.00;;;;;24.85;45.64;101457.56;5092656;27;51194;-47
2021/09/11 04:50:23;;;;;;;;;1.00;1.00;;;;;24.86;45.69;101456.47;5077331;27;50955;-50
2021/09/11 04:52:49;;;;;;;;;1.00;1.00;;;;;24.86;45.79;101462.03;5077567;27;50948;-51
2021/09/11 04:55:14;;;;;;;;;1.00;1.00;;;;;24.86;45.88;101462.03;5079117;27;51243;-52
2021/09/11 04:57:40;;;;;;;;;1.25;1.00;;;;;24.86;45.54;101462.03;5075822;27;51359;-51
2021/09/11 05:00:06;;;;;;;;;4.00;1.50;;;;;24.87;45.78;101472.03;5092067;27;51790;-51
2021/09/11 05:02:31;;;;;;;;;2.00;1.75;;;;;24.87;45.43;101466.47;5094644;27;51483;-49
2021/09/11 05:04:57;;;;;;;;;2.00;2.00;;;;;24.87;45.77;101466.47;5087693;27;51536;-51
2021/09/11 05:07:22;;;;;;;;;3.00;2.25;;;;;24.86;45.49;101462.03;5094638;27;51073;-50
2021/09/11 05:09:48;;;;;;;;;1.00;1.00;;;;;24.85;45.13;101458.41;5090340;27;51098;-51
2021/09/11 05:12:13;;;;;;;;;2.00;2.00;;;;;24.86;45.51;101462.03;5077108;27;51037;-51
2021/09/11 05:14:38;;;;;;;;;2.50;2.00;;;;;24.85;45.19;101469.50;5086411;27;51165;-50
2021/09/11 05:17:04;;;;;;;;;1.00;1.00;;;;;24.85;45.40;101472.25;5083508;27;51565;-50
2021/09/11 05:19:30;;;;;;;;;2.25;1.75;;;;;24.85;45.35;101476.97;5090442;27;51194;-51
2021/09/11 05:21:55;;;;;;;;;1.75;1.00;;;;;24.86;45.50;101470.34;5083923;27;51178;-49
2021/09/11 05:24:20;;;;;;;;;3.25;2.00;;;;;24.85;45.47;101471.41;5081223;27;51276;-50
2021/09/11 05:26:46;;;;;;;;;1.50;1.50;;;;;24.85;45.42;101472.25;5081177;27;51187;-48
2021/09/11 05:29:12;;;;;;;;;2.25;1.00;;;;;24.84;45.35;101476.13;5076807;27;51799;-51
2021/09/11 05:31:38;;;;;;;;;3.50;2.00;;;;;24.84;45.56;101480.81;5094882;27;51017;-50
2021/09/11 05:34:05;;;;;;;;;1.25;1.00;;;;;24.84;45.40;101472.50;5070444;27;51191;-51
2021/09/11 05:36:34;;;;;;;;;3.50;2.00;;;;;24.84;45.50;101480.81;5087787;27;51070;-50
2021/09/11 05:38:59;;;;;;;;;1.00;1.00;;;;;24.83;45.39;101484.69;5091110;27;50966;-47
2021/09/11 05:41:25;;;;;;;;;1.00;1.00;;;;;24.83;45.37;101479.13;5087629;27;51121;-49
2021/09/11 05:43:50;;;;;;;;;1.00;1.00;;;;;24.81;45.35;101482.16;5083751;27;51235;-51
2021/09/11 05:46:16;;;;;;;;;1.75;1.75;;;;;24.82;45.33;101483.84;5083338;27;51430;-47
2021/09/11 05:48:41;;;;;;;;;3.00;3.00;;;;;24.82;45.44;101489.38;5094135;27;51716;-50
2021/09/11 05:51:07;;;;;;;;;1.00;1.00;;;;;24.83;45.27;101495.75;5096465;27;50924;-49
2021/09/11 05:53:32;;;;;;;;;1.50;1.50;;;;;24.81;45.38;101487.69;5087571;27;50962;-52
2021/09/11 05:55:57;;;;;;;;;2.00;2.00;;;;;24.82;45.32;101488.53;5080712;27;51126;-50
2021/09/11 05:58:24;;;;;;;;;1.75;0.50;;;;;24.82;45.57;101499.63;5092300;27;51867;-50
2021/09/11 06:00:49;;;;;;;;;3.75;1.00;;;;;24.80;45.07;101508.13;5093413;27;51166;-49
2021/09/11 06:03:15;;;;;;;;;3.50;2.75;;;;;24.80;45.60;101513.69;5091578;27;51811;-52
2021/09/11 06:05:40;;;;;;;;;2.00;2.00;;;;;24.80;45.35;101515.59;5096535;27;51080;-52
2021/09/11 06:08:06;;;;;;;;;2.75;1.75;;;;;24.80;45.59;101524.75;5090490;27;51781;-52
2021/09/11 06:10:31;;;;;;;;;2.50;2.50;;;;;24.80;45.24;101518.38;5078156;27;51134;-50
2021/09/11 06:12:57;;;;;;;;;1.50;1.00;;;;;24.79;45.29;101523.06;5079183;27;51798;-48
2021/09/11 06:15:22;;;;;;;;;3.25;2.50;;;;;24.79;45.11;101528.63;5085912;27;52678;-51
2021/09/11 06:17:48;;;;;;;;;1.00;1.00;;;;;24.78;45.21;101526.94;5084746;27;52549;-49
2021/09/11 06:20:14;;;;;;;;;2.00;2.00;;;;;24.79;45.22;101527.78;5085046;27;51227;-50
2021/09/11 06:22:39;;;;;;;;;2.00;2.00;;;;;24.77;45.31;101531.63;5082225;27;51198;-49
2021/09/11 06:25:05;;;;;;;;;1.25;1.25;;;;;24.76;45.21;101532.72;5080953;27;51141;-50
2021/09/11 06:27:31;;;;;;;;;2.00;1.00;;;;;24.77;45.12;101548.25;5086798;27;52094;-50
2021/09/11 06:29:56;;;;;;;;;2.00;2.00;;;;;24.77;45.37;101547.41;5077175;27;51108;-52
2021/09/11 06:32:22;;;;;;;;;2.75;1.00;;;;;24.75;45.47;101542.09;5078473;27;52530;-47
2021/09/11 06:34:47;;;;;;;;;2.00;2.00;;;;;24.76;45.21;101534.63;5085932;27;50988;-52
2021/09/11 06:37:13;;;;;;;;;2.00;2.00;;;;;24.76;45.19;101540.19;5095237;27;51732;-47
2021/09/11 06:39:38;;;;;;;;;2.50;1.00;;;;;24.76;45.23;101537.41;5081526;27;51167;-49
2021/09/11 06:42:04;;;;;;;;;1.00;1.00;;;;;24.76;46.67;101538.25;5077566;27;51102;-49
2021/09/11 06:44:29;;;;;;;;;2.00;1.75;;;;;24.79;48.28;101544.41;5085901;27;51080;-50
2021/09/11 06:46:55;;;;;;;;;3.25;1.00;;;;;24.83;46.05;101545.63;5075472;27;51781;-49
2021/09/11 06:49:21;;;;;;;;;2.25;1.00;;;;;24.83;45.96;101534.56;5081208;27;51407;-48
2021/09/11 06:51:47;;;;;;;;;1.75;1.75;;;;;24.84;45.95;101533.47;5092490;27;51066;-46
2021/09/11 06:54:12;;;;;;;;;2.00;2.00;;;;;24.85;45.93;101540.69;5083649;27;51072;-51
2021/09/11 06:56:37;;;;;;;;;2.00;2.00;;;;;24.85;46.01;101543.47;5094183;27;51069;-48
2021/09/11 06:59:03;;;;;;;;;2.00;2.00;;;;;24.84;45.93;101552.88;5093436;27;51052;-51
2021/09/11 07:01:28;;;;;;;;;2.00;2.00;;;;;24.82;46.03;101546.72;5084064;27;51268;-53
2021/09/11 07:03:53;;;;;;;;;1.00;1.00;;;;;24.82;45.87;101550.34;5087610;27;51222;-51
2021/09/11 07:06:19;;;;;;;;;1.25;1.00;;;;;24.82;45.65;101557.81;5079680;27;51737;-49
2021/09/11 07:08:44;;;;;;;;;1.75;0.50;;;;;24.81;45.55;101558.88;5075193;27;51088;-50
2021/09/11 07:11:11;;;;;;;;;2.00;2.00;;;;;24.81;45.51;101559.72;5080187;27;51097;-51
2021/09/11 07:13:37;;;;;;;;;1.00;1.00;;;;;24.81;45.70;101561.66;5086493;27;51074;-48
2021/09/11 07:16:02;;;;;;;;;3.00;1.00;;;;;24.81;45.91;101556.97;5088206;27;51758;-51
2021/09/11 07:18:28;;;;;;;;;3.75;1.00;;;;;24.83;45.89;101565.03;5078265;27;51279;-52
2021/09/11 07:20:53;;;;;;;;;0.50;0.50;;;;;24.83;45.83;101567.81;5077783;27;51379;-51
2021/09/11 07:23:18;;;;;;;;;1.75;1.75;;;;;24.84;45.93;101569.50;5086689;27;51127;-47
2021/09/11 07:25:44;;;;;;;;;2.75;2.50;;;;;24.85;45.91;101572.03;5094713;27;50934;-49
2021/09/11 07:28:09;;;;;;;;;4.00;2.00;;;;;24.84;45.85;101570.34;5076249;27;51014;-49
2021/09/11 07:30:35;;;;;;;;;2.00;1.25;;;;;24.86;46.02;101570.09;5077537;27;51175;-52
2021/09/11 07:33:01;;;;;;;;;2.25;2.25;;;;;24.88;46.83;101565.16;5088645;27;51112;-52
2021/09/11 07:35:26;;;;;;;;;2.75;1.50;;;;;24.89;48.36;101567.69;5089117;27;51151;-52
2021/09/11 07:37:52;;;;;;;;;2.25;1.75;;;;;24.92;49.08;101571.94;5089429;27;51392;-49
2021/09/11 07:40:17;;;;;;;;;1.50;1.50;;;;;24.95;48.66;101563.16;5087966;27;51075;-53
2021/09/11 07:42:42;;;;;;;;;2.75;2.75;;;;;24.97;48.25;101560.97;5084754;27;51397;-49
2021/09/11 07:45:12;;;;;;;;;1.25;1.25;;;;;25.00;48.30;101566.88;5087806;27;51721;-48
2021/09/11 07:47:39;;;;;;;;;4.75;4.00;;;;;25.01;47.96;101570.50;5092974;27;50902;-51
2021/09/11 07:50:04;;;;;;;;;2.75;1.75;;;;;25.03;47.99;101568.41;5081171;27;51120;-52
2021/09/11 07:52:30;;;;;;;;;3.00;2.00;;;;;25.03;47.82;101566.47;5090169;27;51640;-49
2021/09/11 07:54:55;;;;;;;;;5.25;2.50;;;;;25.04;47.61;101567.31;5085414;27;51790;-52
2021/09/11 07:57:20;;;;;;;;;3.00;1.25;;;;;25.06;47.32;101575.41;5089310;27;52081;-51
2021/09/11 07:59:46;;;;;;;;;3.25;1.25;;;;;25.07;47.41;101575.16;5085129;27;51812;-49
2021/09/11 08:02:11;;;;;;;;;2.00;2.00;;;;;25.08;46.98;101570.44;5086014;27;51314;-51
2021/09/11 08:04:36;;;;;;;;;4.25;2.00;;;;;25.09;46.63;101577.69;5086540;27;51113;-52
2021/09/11 08:07:01;;;;;;;;;1.50;1.25;;;;;25.10;47.26;101582.16;5088975;27;51080;-50
2021/09/11 08:09:27;;;;;;;;;2.00;2.00;;;;;25.10;46.73;101584.91;5085288;27;51415;-53
2021/09/11 08:11:52;;;;;;;;;2.50;2.50;;;;;25.11;47.10;101587.44;5087339;27;51177;-51
2021/09/11 08:14:17;;;;;;;;;5.00;3.00;;;;;25.13;47.10;101596.41;5073968;27;51965;-54
2021/09/11 08:16:43;;;;;;;;;2.00;1.25;;;;;25.14;47.07;101588.94;5088201;27;51107;-51
2021/09/11 08:19:09;;;;;;;;;1.50;1.50;;;;;25.15;47.01;101599.78;5072778;27;51205;-50
2021/09/11 08:21:34;;;;;;;;;3.50;2.00;;;;;25.15;46.93;101591.47;5082220;27;51726;-54
2021/09/11 08:24:00;;;;;;;;;5.00;4.25;;;;;25.16;46.92;101607.00;5088635;27;51032;-52
2021/09/11 08:26:25;;;;;;;;;4.50;4.00;;;;;25.16;47.01;101595.06;5089296;27;51087;-56
2021/09/11 08:28:51;;;;;;;;;8.75;6.50;;;;;25.17;47.05;101608.69;5090110;27;52761;-53
2021/09/11 08:31:17;;;;;;;;;4.50;4.50;;;;;25.19;47.29;101612.06;5095658;27;51130;-54
2021/09/11 08:33:43;;;;;;;;;5.50;5.00;;;;;25.19;46.98;101614.84;5090118;27;51054;-53
2021/09/11 08:36:09;;;;;;;;;7.75;6.50;;;;;25.20;47.25;101613.75;5082712;27;51179;-52
2021/09/11 08:38:35;;;;;;;;;5.50;5.00;;;;;25.23;47.05;101615.25;5077386;27;50922;-55
2021/09/11 08:41:03;;;;;;;;;5.25;5.00;;;;;25.24;47.16;101605.84;5078570;27;51258;-52
2021/09/11 08:43:29;;;;;;;;;5.75;3.25;;;;;25.23;47.03;101610.53;5086028;27;51969;-52
2021/09/11 08:45:55;;;;;;;;;4.50;4.50;;;;;25.25;47.11;101611.16;5083765;27;51170;-50
2021/09/11 08:48:20;;;;;;;;;5.00;3.25;;;;;25.27;46.86;101614.53;5085838;27;51325;-52
2021/09/11 08:50:45;;;;;;;;;5.75;4.75;;;;;25.29;47.08;101608.72;5082061;27;51154;-53
2021/09/11 08:53:11;;;;;;;;;6.00;4.00;;;;;25.29;47.12;101612.34;5085028;27;51029;-52
2021/09/11 08:55:37;;;;;;;;;5.00;5.00;;;;;25.31;46.87;101610.19;5090081;27;51124;-53
2021/09/11 08:58:05;;;;;;;;;7.75;4.25;;;;;25.33;47.10;101609.97;5090926;27;51164;-51
2021/09/11 09:00:54;;;;;;;;;6.00;4.00;;;;;25.35;47.11;101605.03;5094798;27;50990;-54
2021/09/11 09:03:30;;;;;;;;;8.25;3.25;;;;;25.36;47.19;101605.88;5090933;27;52054;-51
2021/09/11 09:06:08;;;;;;;;;3.25;2.25;;;;;25.38;46.84;101604.53;5085176;27;51226;-51
2021/09/11 09:08:34;;;;;;;;;4.75;2.50;;;;;25.40;46.96;101609.84;5087889;27;51224;-52
2021/09/11 09:11:14;;;;;;;;;5.00;3.00;;;;;25.41;47.04;101603.22;5088441;27;51672;-49
2021/09/11 09:13:55;;;;;;;;;3.25;3.25;;;;;25.42;46.82;101613.22;5080955;27;53932;-50
2021/09/11 09:16:21;;;;;;;;;4.00;2.75;;;;;25.44;46.57;101611.94;5084578;27;51286;-47
2021/09/11 09:18:47;;;;;;;;;4.75;4.25;;;;;25.45;46.79;101610.00;5082589;27;51390;-51
2021/09/11 09:21:30;;;;;;;;;3.75;3.50;;;;;25.45;46.56;101608.06;5080471;27;51166;-49
2021/09/11 09:24:04;;;;;;;;;3.50;3.00;;;;;25.47;46.38;101613.38;5076012;27;52890;-51
2021/09/11 09:26:47;;;;;;;;;5.25;1.25;;;;;25.48;46.43;101610.34;5084914;27;51332;-49
2021/09/11 09:29:15;;;;;;;;;2.00;2.00;;;;;25.48;45.93;101610.34;5079247;27;51208;-51
2021/09/11 09:31:43;;;;;;;;;3.00;3.00;;;;;25.48;45.91;101596.50;5086959;27;51305;-47
2021/09/11 09:34:08;;;;;;;;;2.25;2.00;;;;;25.49;45.16;101600.09;5085984;27;51999;-51
2021/09/11 09:36:36;;;;;;;;;3.50;3.50;;;;;25.49;44.44;101600.09;5083963;27;51190;-50
2021/09/11 09:39:04;;;;;;;;;3.00;1.75;;;;;25.51;44.51;101604.31;5079336;27;51433;-50
2021/09/11 09:41:51;;;;;;;;;4.00;2.00;;;;;25.52;43.90;101606.00;5078750;27;51175;-46
2021/09/11 09:44:19;;;;;;;;;2.00;2.00;;;;;25.53;43.97;101604.97;5082458;27;51071;-51
2021/09/11 09:46:46;;;;;;;;;3.50;3.00;;;;;25.55;43.76;101596.41;5083933;27;51283;-49
2021/09/11 09:49:17;;;;;;;;;2.00;2.00;;;;;25.55;43.52;101599.16;5076590;27;51066;-50
2021/09/11 09:51:43;;;;;;;;;4.00;4.00;;;;;25.56;43.36;101592.53;5095264;27;51230;-46
2021/09/11 09:54:09;;;;;;;;;4.00;2.00;;;;;25.56;43.29;101592.53;5075267;27;51086;-50
2021/09/11 09:56:35;;;;;;;;;4.00;2.25;;;;;25.57;43.03;101592.28;5075717;27;51270;-50
2021/09/11 09:59:00;;;;;;;;;1.75;1.75;;;;;25.59;43.04;101601.22;5064353;28;51076;-51
2021/09/11 10:01:27;;;;;;;;;2.50;2.50;;;;;25.60;42.86;101589.03;5076723;27;51053;-56
2021/09/11 10:03:53;;;;;;;;;2.00;2.00;;;;;25.60;42.65;101579.88;5086658;27;50966;-56
2021/09/11 10:06:32;;;;;;;;;5.00;3.00;;;;;25.62;42.46;101589.63;5094775;27;51072;-52
2021/09/11 10:09:04;;;;;;;;;2.00;2.00;;;;;25.62;42.43;101589.63;5088385;27;51329;-56
2021/09/11 10:11:34;;;;;;;;;2.75;1.25;;;;;25.63;42.70;101582.16;5078959;27;50923;-56
2021/09/11 10:14:03;;;;;;;;;4.25;3.00;;;;;25.64;42.72;101581.09;5087740;27;51195;-52
2021/09/11 10:16:31;;;;;;;;;2.00;2.00;;;;;25.64;42.34;101581.09;5088800;27;51230;-55
2021/09/11 10:18:56;;;;;;;;;3.00;3.00;;;;;25.64;42.79;101575.53;5075899;27;51167;-56
2021/09/11 10:21:37;;;;;;;;;2.75;2.75;;;;;25.64;43.12;101589.41;5091333;27;51151;-55
2021/09/11 10:24:02;;;;;;;;;2.75;2.75;;;;;25.65;43.08;101579.16;5075670;27;51157;-53
2021/09/11 10:26:43;;;;;;;;;2.25;2.00;;;;;25.66;43.07;101584.47;5080772;27;50956;-51
2021/09/11 10:29:33;;;;;;;;;1.75;1.75;;;;;25.67;43.33;101585.31;5069054;27;51250;-50
2021/09/11 10:32:08;;;;;;;;;2.00;2.00;;;;;25.66;43.23;101587.25;5075954;27;51436;-52
2021/09/11 10:34:53;;;;;;;;;4.75;3.00;;;;;25.68;43.21;101582.28;5065432;27;52054;-50
2021/09/11 10:37:30;;;;;;;;;2.75;2.75;;;;;25.68;43.58;101584.22;5087903;27;50945;-51
2021/09/11 10:40:18;;;;;;;;;3.00;3.00;;;;;25.69;43.80;101583.13;5092008;27;51306;-51
2021/09/11 10:43:19;;;;;;;;;2.50;2.50;;;;;25.70;43.63;101577.38;5075322;27;51086;-53
2021/09/11 10:45:53;;;;;;;;;1.50;1.50;;;;;25.69;43.62;101578.44;5074313;27;51966;-54
2021/09/11 10:48:42;;;;;;;;;3.25;3.25;;;;;25.69;44.17;101589.53;5093369;27;51221;-55
2021/09/11 10:51:30;;;;;;;;;2.00;2.00;;;;;25.71;43.90;101581.00;5090511;27;51155;-55
2021/09/11 10:54:13;;;;;;;;;3.75;1.50;;;;;25.70;43.92;101577.38;5090809;27;51341;-55
2021/09/11 10:56:47;;;;;;;;;2.75;2.75;;;;;25.70;43.82;101574.59;5089611;27;52758;-54
2021/09/11 10:59:18;;;;;;;;;2.00;2.00;;;;;25.71;43.89;101570.75;5083123;27;51464;-53
2021/09/11 11:02:05;;;;;;;;;4.25;3.00;;;;;25.70;43.82;101580.16;5081725;27;51108;-51
2021/09/11 11:04:35;;;;;;;;;3.00;2.75;;;;;25.69;43.84;101583.97;5090652;27;51040;-54
2021/09/11 11:07:05;;;;;;;;;2.00;2.00;;;;;25.70;43.90;101582.94;5093209;27;52751;-52
2021/09/11 11:09:35;;;;;;;;;2.25;2.00;;;;;25.70;43.64;101580.16;5085839;27;51127;-53
2021/09/11 11:12:00;;;;;;;;;3.00;3.00;;;;;25.70;43.57;101571.81;5079869;27;51203;-57
2021/09/11 11:14:30;;;;;;;;;2.75;2.75;;;;;25.68;43.47;101579.53;5082480;27;51372;-55
2021/09/11 11:16:55;;;;;;;;;5.50;3.75;;;;;25.68;43.75;101587.00;5093012;27;51166;-52
2021/09/11 11:19:23;;;;;;;;;3.00;3.00;;;;;25.68;43.54;101576.75;5081854;27;51040;-54
2021/09/11 11:22:05;;;;;;;;;3.50;3.50;;;;;25.70;43.63;101580.16;5083605;27;51567;-55
2021/09/11 11:24:42;;;;;;;;;5.75;2.00;;;;;25.72;43.81;101572.44;5074245;27;51278;-50